Bruce, Florida
Current Conditions -  °F | °C
As of 8:15 AM on Sunday 21 Dec 2014 (Local Time) from K54J Reporting Station
Haze Haze  
Wind Chill: 52°   Ceiling: 600
Heat Index: 52°   Visibility: 5mi
Dew Point: 51°   Wind: 7mph
Humidity: 96%   Direction: 40°NE
Pressure: 30.11"   Gusts: NA
Location:  30.678°N, 85.9545°W
Report Text: K54J 211415Z AUTO 04006KT 5SM BR OVC006 11/11 A3011 RMK AO2 T01130107
Loading
Personal Weather Stations






























Interactive Weather Map New forecast layout! Learn more

10-Day Weather Forecast

Advertisements
Track Severe Weather on mobile